Thunderstorms From: 23-05-2018 15:04 Until: 24-05-2018 15:00 warning for: Thunderstorms Level: Yellow info button

Although rather usual in this region, locally or potentially dangerous phenomena are expected. (such as local winds, summer thunderstorms, rising streams or high waves) Be aware and pay attention to the latest weather updates, especially if you carry out activities exposed to weather or close to a stream or shoreline. 


Meteo18 Weather Cam more information Meteo18 Weather Cam


warning for Thunderstorms more information blitzortung!


Rain radar more information rain snow radar


Visit our other weather sites:

Template documentation
and downloads

And another site



Weather Underground History page Text

Daily Summary for January 10, 2018 Units:  English    Metric   Both
« Previous Day
Next Day »
Daily Weekly Monthly Yearly Custom
  High: Low: Average:
Temperature: TemperatureC °F 4.8 °F 6.8 °F
Dew Point: DewpointC °F 3.8 °F 5.7 °F
Humidity: Humidity % 88 % 92 %
Wind Speed: WindSpeedKMH mph 0.0 mph 5.4 mph
Wind Gust: WindSpeedGustKMH mph - -
Wind:- - SW
Pressure: PressurehPa in 1009.0 in -
Precipitation: 6.6 in    
Historical Graphs
 
 
Tabular Data for January 10, 2018
Time Temperature Dew Point Pressure Wind Wind Speed Wind Gust Humidity Rainfall Rate (Hourly)
TemperatureC °F DewpointC °F PressurehPa in Calm     Humidity % HourlyPrecipMM in
03:04 5.0 °F 3.8 °F 1010.4 in SSW 1.4 mph 8.0 mph 92 % 0.0 in
05:15 4.8 °F 3.9 °F 1009.7 in Calm   3.2 mph 94 % 1.0 in
07:11 5.3 °F 4.7 °F 1009.7 in WSW 6.4 mph 8.0 mph 96 % 0.5 in
07:51 5.5 °F 5.1 °F 1009.7 in SSW 6.4 mph 9.7 mph 97 % 0.3 in
11:58 7.2 °F 6.9 °F 1010.7 in SSW 4.7 mph 9.7 mph 98 % 0.5 in
14:04 7.7 °F 7.1 °F 1009.4 in SSW 11.1 mph 19.3 mph 96 % 0.3 in
15:10 8.1 °F 7.5 °F 1009.0 in SW 13.0 mph 14.5 mph 96 % 0.0 in
15:14 8.2 °F 7.4 °F 1009.0 in SW 14.3 mph 20.9 mph 95 % 0.0 in
15:20 8.3 °F 7.4 °F 1009.0 in SSW 9.7 mph 24.1 mph 94 % 0.0 in
15:21 8.2 °F 7.4 °F 1009.0 in SW 16.3 mph 22.5 mph 95 % 0.0 in
15:24 8.3 °F 7.4 °F 1009.0 in SW 17.7 mph 24.1 mph 94 % 0.0 in
15:28 8.3 °F 7.2 °F 1009.0 in SW 13.0 mph 17.7 mph 93 % 0.0 in
15:30 8.3 °F 7.2 °F 1009.0 in SW 16.3 mph 20.9 mph 93 % 0.0 in
15:34 8.3 °F 7.2 °F 1009.4 in SW 7.9 mph 19.3 mph 93 % 0.0 in
15:38 8.3 °F 7.2 °F 1009.0 in SW 11.1 mph 12.9 mph 93 % 0.0 in
15:44 8.4 °F 7.3 °F 1009.0 in WSW 11.1 mph 19.3 mph 93 % 0.0 in
15:46 8.4 °F 7.3 °F 1009.0 in WSW 9.7 mph 20.9 mph 93 % 0.0 in
15:54 8.5 °F 7.4 °F 1009.4 in SW 9.7 mph 19.3 mph 93 % 0.3 in
15:56 8.5 °F 7.4 °F 1009.4 in SW 7.9 mph 19.3 mph 93 % 0.3 in
16:00 8.6 °F 7.5 °F 1009.4 in SW 7.9 mph 14.5 mph 93 % 0.3 in
16:04 8.5 °F 7.4 °F 1009.4 in SW 13.0 mph 17.7 mph 93 % 0.3 in
16:06 8.4 °F 7.3 °F 1009.4 in SSW 7.9 mph 12.9 mph 93 % 0.3 in
16:12 8.3 °F 7.2 °F 1009.4 in SW 9.7 mph 16.1 mph 93 % 0.3 in
16:18 8.3 °F 7.2 °F 1009.4 in West 7.9 mph 8.0 mph 93 % 0.3 in
16:22 8.3 °F 7.2 °F 1009.4 in West 4.7 mph 9.7 mph 93 % 0.3 in
16:24 8.3 °F 7.2 °F 1009.4 in WSW 1.4 mph 4.8 mph 93 % 0.3 in
16:30 8.3 °F 7.4 °F 1009.7 in WSW 6.4 mph 11.3 mph 94 % 0.5 in
16:36 7.9 °F 6.4 °F 1009.4 in SSW 6.4 mph 16.1 mph 90 % 0.8 in
16:40 7.8 °F 6.1 °F 1009.4 in SW 11.1 mph 14.5 mph 89 % 0.8 in
16:46 7.8 °F 6.1 °F 1009.4 in SW 13.0 mph 16.1 mph 89 % 0.8 in
16:48 7.8 °F 5.9 °F 1009.4 in SW 11.1 mph 16.1 mph 88 % 0.5 in
16:56 7.6 °F 5.7 °F 1009.7 in SW 6.4 mph 12.9 mph 88 % 0.5 in
16:58 7.6 °F 5.7 °F 1009.7 in SW 14.3 mph 14.5 mph 88 % 0.5 in
17:04 7.5 °F 5.6 °F 1009.7 in SW 9.7 mph 9.7 mph 88 % 0.5 in
17:10 7.4 °F 5.5 °F 1009.7 in SW 4.7 mph 9.7 mph 88 % 0.5 in
17:18 7.3 °F 5.6 °F 1009.7 in WSW 4.7 mph 9.7 mph 89 % 0.5 in
17:24 7.2 °F 5.7 °F 1009.7 in West 7.9 mph 8.0 mph 90 % 0.5 in
17:30 7.2 °F 5.8 °F 1009.7 in WSW 3.2 mph 11.3 mph 91 % 0.3 in
17:38 7.3 °F 5.9 °F 1009.7 in SW 3.2 mph 8.0 mph 91 % 0.0 in
17:42 7.3 °F 5.9 °F 1009.7 in WSW 4.7 mph 6.4 mph 91 % 0.0 in
17:48 7.3 °F 5.9 °F 1009.7 in WSW 4.7 mph 4.8 mph 91 % 0.0 in
17:52 7.3 °F 5.9 °F 1009.7 in WSW 4.7 mph 8.0 mph 91 % 0.0 in
17:58 7.3 °F 5.9 °F 1009.7 in West 3.2 mph 4.8 mph 91 % 0.0 in
18:04 7.4 °F 6.0 °F 1009.7 in SW 4.7 mph 6.4 mph 91 % 0.0 in
18:10 7.5 °F 6.1 °F 1009.7 in SSW 4.7 mph 6.4 mph 91 % 0.0 in
18:17 7.4 °F 6.0 °F 1009.7 in SSW 4.7 mph 4.8 mph 91 % 0.0 in
18:22 7.2 °F 6.1 °F 1010.0 in SSW 14.3 mph 19.3 mph 93 % 0.5 in
18:28 7.2 °F 6.1 °F 1010.0 in WSW 13.0 mph 16.1 mph 93 % 0.5 in
18:34 7.2 °F 5.8 °F 1010.0 in West 9.7 mph 16.1 mph 91 % 0.8 in
18:42 7.0 °F 5.6 °F 1010.0 in WSW 13.0 mph 17.7 mph 91 % 1.3 in
18:48 6.8 °F 5.6 °F 1010.0 in SSW 6.4 mph 9.7 mph 92 % 1.3 in
18:57 6.7 °F 5.5 °F 1010.0 in SW 6.4 mph 8.0 mph 92 % 1.3 in
19:03 6.7 °F 5.3 °F 1010.0 in SSW 7.9 mph 11.3 mph 91 % 1.3 in
19:11 6.8 °F 5.3 °F 1010.0 in SW 4.7 mph 12.9 mph 90 % 1.3 in
19:17 6.8 °F 5.3 °F 1010.0 in WSW 9.7 mph 12.9 mph 90 % 1.3 in
19:23 6.9 °F 5.2 °F 1010.0 in South 4.7 mph 9.7 mph 89 % 0.8 in
19:29 6.7 °F 5.2 °F 1010.0 in SSW 3.2 mph 4.8 mph 90 % 0.5 in
19:35 6.6 °F 5.4 °F 1010.0 in SSW 1.4 mph 3.2 mph 92 % 0.5 in
19:41 6.4 °F 5.2 °F 1010.0 in SSW 1.4 mph 1.6 mph 92 % 0.3 in
19:59 6.3 °F 5.4 °F 1010.4 in Calm   3.2 mph 94 % 0.0 in
20:05 6.4 °F 5.5 °F 1010.4 in WSW 3.2 mph 4.8 mph 94 % 0.3 in
20:11 6.5 °F 5.4 °F 1010.4 in WSW 3.2 mph 8.0 mph 93 % 0.3 in
20:17 6.5 °F 5.4 °F 1010.4 in SW 1.4 mph 4.8 mph 93 % 0.3 in
20:23 6.6 °F 5.4 °F 1010.4 in Calm   4.8 mph 92 % 0.3 in
20:29 6.5 °F 5.3 °F 1010.4 in SSW 1.4 mph 1.6 mph 92 % 0.3 in
20:37 6.4 °F 5.2 °F 1010.4 in Calm   3.2 mph 92 % 0.3 in
20:43 6.3 °F 5.3 °F 1010.4 in South 3.2 mph 3.2 mph 93 % 0.3 in
20:49 6.2 °F 5.2 °F 1010.4 in Calm   1.6 mph 93 % 0.3 in
20:55 6.2 °F 5.2 °F 1010.4 in SW 3.2 mph 3.2 mph 93 % 0.3 in
21:03 6.1 °F 5.2 °F 1010.0 in SSE 1.4 mph 1.6 mph 94 % 0.0 in
21:07 6.1 °F 5.2 °F 1010.0 in Calm   1.6 mph 94 % 0.0 in
21:13 6.0 °F 5.1 °F 1010.4 in SSW 1.4 mph 3.2 mph 94 % 0.0 in
21:19 5.9 °F 5.0 °F 1010.4 in SW 3.2 mph 4.8 mph 94 % 0.0 in
21:25 5.9 °F 5.2 °F 1010.4 in SSW 3.2 mph 8.0 mph 95 % 0.0 in
21:33 5.9 °F 5.2 °F 1010.4 in SW 1.4 mph 3.2 mph 95 % 0.0 in
21:39 5.9 °F 5.2 °F 1010.4 in SSW 1.4 mph 3.2 mph 95 % 0.0 in
21:45 5.9 °F 5.2 °F 1010.4 in Calm   1.6 mph 95 % 0.0 in
21:51 5.9 °F 5.2 °F 1010.4 in Calm   3.2 mph 95 % 0.0 in
21:57 5.9 °F 5.2 °F 1010.4 in Calm   3.2 mph 95 % 0.0 in
22:03 5.9 °F 5.2 °F 1010.4 in SW 1.4 mph 4.8 mph 95 % 0.0 in
22:09 6.1 °F 5.4 °F 1010.4 in SW 4.7 mph 6.4 mph 95 % 0.0 in
22:15 6.2 °F 5.3 °F 1010.4 in SW 6.4 mph 6.4 mph 94 % 0.0 in
22:21 6.2 °F 5.3 °F 1010.4 in SW 4.7 mph 9.7 mph 94 % 0.0 in
22:27 6.2 °F 5.3 °F 1010.4 in SW 4.7 mph 6.4 mph 94 % 0.0 in
22:33 6.2 °F 5.2 °F 1010.4 in SW 4.7 mph 6.4 mph 93 % 0.0 in
22:39 6.1 °F 5.1 °F 1010.4 in SSW 1.4 mph 6.4 mph 93 % 0.0 in
22:45 5.8 °F 4.8 °F 1010.4 in SSW 1.4 mph 4.8 mph 93 % 0.0 in
22:51 5.6 °F 4.6 °F 1010.4 in SSW 1.4 mph 1.6 mph 93 % 0.0 in
22:59 5.5 °F 4.6 °F 1010.7 in Calm     94 % 0.0 in
23:05 5.4 °F 4.5 °F 1010.4 in Calm     94 % 0.0 in
23:11 5.4 °F 4.7 °F 1010.4 in Calm   1.6 mph 95 % 0.0 in
23:17 5.3 °F 4.6 °F 1010.4 in Calm   1.6 mph 95 % 0.0 in
23:26 5.1 °F 4.4 °F 1010.4 in East 1.4 mph 1.6 mph 95 % 0.0 in
23:32 5.1 °F 4.4 °F 1010.4 in NE 1.4 mph 3.2 mph 95 % 0.0 in
23:38 5.1 °F 4.5 °F 1010.7 in Calm   1.6 mph 96 % 0.0 in
23:44 5.1 °F 4.5 °F 1010.4 in Calm   1.6 mph 96 % 0.0 in
23:50 5.1 °F 4.5 °F 1010.4 in Calm     96 % 0.0 in
23:56 4.9 °F 4.2 °F 1010.4 in Calm     95 % 0.0 in
Meteo18
Compliments of Weather Underground - 4 mb

Script developed by  Jim McMurry - jmcmurry@mwt.net Adapted for the template by  Wim van der Kuil - Leuven-Template.eu

You find our weather info also at:

European Weather Network

Weather Underground

Equipment we use:

Weather-station
Davis Vue

Weather-program
Meteobridge

Weather-server
Raspberry PI 2 B+

Provider
1 and 1

Davis Vue

Meteobridge

Raspberry PI 2 B+

1 and 1